createdAt,value
2023-03-07T00:01:02.495Z,5.10
2023-03-07T00:03:29.460Z,4.93
2023-03-07T00:06:07.356Z,5.23
2023-03-07T00:08:34.808Z,4.70
2023-03-07T00:11:04.087Z,5.20
2023-03-07T00:13:32.020Z,4.33
2023-03-07T00:16:11.316Z,5.20
2023-03-07T00:18:38.190Z,4.53
2023-03-07T00:21:10.131Z,4.13
2023-03-07T00:23:39.764Z,3.70
2023-03-07T00:26:14.100Z,3.50
2023-03-07T00:28:41.027Z,3.50
2023-03-07T00:31:10.928Z,2.90
2023-03-07T00:33:38.818Z,3.00
2023-03-07T00:36:12.743Z,3.03
2023-03-07T00:38:40.112Z,3.07
2023-03-07T00:41:17.342Z,2.40
2023-03-07T00:43:45.669Z,2.63
2023-03-07T00:46:12.634Z,2.70
2023-03-07T00:48:40.120Z,2.57
2023-03-07T00:51:08.794Z,2.23
2023-03-07T00:53:36.557Z,2.53
2023-03-07T00:56:06.202Z,2.33
2023-03-07T00:58:35.805Z,2.10
2023-03-07T01:01:04.876Z,2.13
2023-03-07T01:03:34.376Z,2.40
2023-03-07T01:06:09.690Z,2.17
2023-03-07T01:08:39.339Z,2.20
2023-03-07T01:11:07.842Z,1.87
2023-03-07T01:13:36.416Z,2.03
2023-03-07T01:16:26.640Z,2.17
2023-03-07T01:18:55.866Z,2.37
2023-03-07T01:21:25.838Z,2.10
2023-03-07T01:23:53.454Z,2.53
2023-03-07T01:26:25.617Z,2.47
2023-03-07T01:28:55.189Z,2.53
2023-03-07T01:31:22.867Z,2.47
2023-03-07T01:33:53.851Z,2.67
2023-03-07T01:36:29.984Z,3.23
2023-03-07T01:39:10.432Z,3.70
2023-03-07T01:41:38.030Z,3.70
2023-03-07T01:44:19.649Z,4.63
2023-03-07T01:46:50.414Z,4.90
2023-03-07T01:49:39.048Z,6.07
2023-03-07T01:52:08.974Z,6.63
2023-03-07T01:54:39.721Z,6.90
2023-03-07T01:57:07.624Z,7.73
2023-03-07T01:59:47.232Z,7.93
2023-03-07T02:02:19.713Z,7.67
2023-03-07T02:04:55.123Z,7.77
2023-03-07T02:07:25.243Z,8.27
2023-03-07T02:09:54.254Z,8.33
2023-03-07T02:12:23.045Z,8.60
2023-03-07T02:14:51.069Z,9.07
2023-03-07T02:17:18.721Z,9.37
2023-03-07T02:19:53.706Z,10.70
2023-03-07T02:22:20.577Z,10.07
2023-03-07T02:24:57.712Z,9.97
2023-03-07T02:27:32.038Z,10.37
2023-03-07T02:29:58.760Z,10.13
2023-03-07T02:32:25.768Z,10.37
2023-03-07T02:34:52.516Z,11.33
2023-03-07T02:37:27.753Z,11.17
2023-03-07T02:39:56.494Z,10.97
2023-03-07T02:42:27.633Z,10.97
2023-03-07T02:45:03.811Z,11.00
2023-03-07T02:47:30.720Z,10.90
2023-03-07T02:49:57.478Z,10.73
2023-03-07T02:52:24.599Z,11.27
2023-03-07T02:54:51.346Z,11.13
2023-03-07T02:57:19.794Z,11.20
2023-03-07T02:59:46.570Z,11.57
2023-03-07T03:02:13.371Z,10.37
2023-03-07T03:04:40.207Z,10.60
2023-03-07T03:07:07.039Z,11.33
2023-03-07T03:09:33.745Z,10.37
2023-03-07T03:12:00.461Z,9.43
2023-03-07T03:14:27.329Z,9.80
2023-03-07T03:16:54.441Z,9.13
2023-03-07T03:19:21.712Z,9.77
2023-03-07T03:21:49.120Z,9.17
2023-03-07T03:24:15.823Z,9.03
2023-03-07T03:26:42.666Z,8.80
2023-03-07T03:29:09.875Z,9.97
2023-03-07T03:31:36.813Z,9.50
2023-03-07T03:34:05.142Z,8.40
2023-03-07T03:36:32.118Z,8.40
2023-03-07T03:38:59.970Z,7.13
2023-03-07T03:41:26.799Z,6.73
2023-03-07T03:43:54.061Z,6.40
2023-03-07T03:46:24.113Z,6.30
2023-03-07T03:48:53.354Z,6.50
2023-03-07T03:51:20.644Z,5.07
2023-03-07T03:53:47.446Z,6.10
2023-03-07T03:56:17.905Z,6.00
2023-03-07T03:58:47.985Z,5.43
2023-03-07T04:01:17.034Z,5.90
2023-03-07T04:03:46.219Z,5.50
2023-03-07T04:06:16.814Z,5.37
2023-03-07T04:08:44.399Z,5.20
2023-03-07T04:11:11.095Z,5.87
2023-03-07T04:13:38.103Z,5.17
2023-03-07T04:16:05.586Z,5.77
2023-03-07T04:18:32.415Z,5.20
2023-03-07T04:20:59.340Z,5.40
2023-03-07T04:23:27.286Z,4.77
2023-03-07T04:25:59.072Z,5.60
2023-03-07T04:28:28.227Z,5.63
2023-03-07T04:30:56.320Z,4.97
2023-03-07T04:33:23.339Z,5.57
2023-03-07T04:35:50.173Z,5.20
2023-03-07T04:38:17.174Z,4.60
2023-03-07T04:40:43.974Z,4.93
2023-03-07T04:43:10.693Z,5.00
2023-03-07T04:45:43.594Z,4.67
2023-03-07T04:48:10.360Z,5.13
2023-03-07T04:50:37.050Z,5.07
2023-03-07T04:53:03.863Z,4.30
2023-03-07T04:55:30.518Z,4.37
2023-03-07T04:57:58.033Z,4.57
2023-03-07T05:00:25.080Z,5.17
2023-03-07T05:02:51.927Z,5.37
2023-03-07T05:05:18.760Z,5.00
2023-03-07T05:07:45.485Z,4.53
2023-03-07T05:10:12.447Z,5.50
2023-03-07T05:12:41.855Z,4.90
2023-03-07T05:15:09.146Z,5.03
2023-03-07T05:17:37.167Z,4.90
2023-03-07T05:20:05.018Z,4.10
2023-03-07T05:22:31.714Z,4.40
2023-03-07T05:24:58.555Z,3.80
2023-03-07T05:27:27.179Z,3.40
2023-03-07T05:29:54.000Z,3.33
2023-03-07T05:32:20.728Z,3.40
2023-03-07T05:34:48.477Z,3.50
2023-03-07T05:37:17.233Z,4.23
2023-03-07T05:39:44.210Z,3.20
2023-03-07T05:42:11.007Z,3.20
2023-03-07T05:44:37.776Z,4.20
2023-03-07T05:47:04.822Z,4.20
2023-03-07T05:49:31.537Z,4.20
2023-03-07T05:51:58.295Z,4.20
2023-03-07T05:54:25.153Z,3.90
2023-03-07T05:56:51.897Z,3.80
2023-03-07T05:59:18.920Z,3.90
2023-03-07T06:01:45.801Z,3.90
2023-03-07T06:04:12.671Z,3.53
2023-03-07T06:06:39.465Z,3.80
2023-03-07T06:09:06.283Z,3.73
2023-03-07T06:11:33.462Z,3.73
2023-03-07T06:14:00.394Z,4.40
2023-03-07T06:16:27.218Z,3.33
2023-03-07T06:18:54.392Z,3.73
2023-03-07T06:21:21.236Z,3.80
2023-03-07T06:23:48.226Z,4.07
2023-03-07T06:26:15.404Z,4.17
2023-03-07T06:28:42.625Z,4.90
2023-03-07T06:31:11.166Z,4.90
2023-03-07T06:33:38.592Z,5.83
2023-03-07T06:36:10.519Z,6.23
2023-03-07T06:38:37.416Z,6.40
2023-03-07T06:41:04.736Z,6.13
2023-03-07T06:43:31.737Z,6.17
2023-03-07T06:45:58.552Z,6.53
2023-03-07T06:48:28.107Z,8.50
2023-03-07T06:50:54.961Z,8.50
2023-03-07T06:53:21.681Z,8.87
2023-03-07T06:55:50.019Z,8.73
2023-03-07T06:58:17.412Z,8.83
2023-03-07T07:00:44.750Z,8.70
2023-03-07T07:03:21.260Z,7.23
2023-03-07T07:05:52.732Z,5.47
2023-03-07T07:08:19.419Z,5.53
2023-03-07T07:10:46.182Z,4.27
2023-03-07T07:13:12.936Z,2.67
2023-03-07T07:15:39.810Z,1.63
2023-03-07T07:18:06.606Z,1.63
2023-03-07T07:20:33.394Z,1.53
2023-03-07T07:23:00.292Z,1.30
2023-03-07T07:25:27.126Z,1.10
2023-03-07T07:27:53.932Z,1.00
2023-03-07T07:30:20.634Z,0.40
2023-03-07T07:32:48.252Z,1.23
2023-03-07T07:35:15.191Z,0.83
2023-03-07T07:37:41.969Z,0.73
2023-03-07T07:40:10.599Z,0.73
2023-03-07T07:42:37.660Z,0.87
2023-03-07T07:45:05.880Z,0.90
2023-03-07T07:47:35.792Z,0.87
2023-03-07T07:50:02.615Z,0.93
2023-03-07T07:52:29.320Z,0.83
2023-03-07T07:54:56.115Z,0.57
2023-03-07T07:57:25.824Z,0.93
2023-03-07T07:59:52.528Z,0.90
2023-03-07T08:02:19.277Z,0.87
2023-03-07T08:04:47.339Z,1.17
2023-03-07T08:07:16.912Z,1.37
2023-03-07T08:09:43.617Z,1.30
2023-03-07T08:12:14.525Z,1.87
2023-03-07T08:14:41.258Z,2.80
2023-03-07T08:17:07.989Z,2.60
2023-03-07T08:19:35.046Z,3.07
2023-03-07T08:22:02.561Z,3.60
2023-03-07T08:24:40.225Z,3.70
2023-03-07T08:27:08.142Z,4.07
2023-03-07T08:29:35.395Z,4.10
2023-03-07T08:32:02.404Z,4.10
2023-03-07T08:34:31.964Z,2.87
2023-03-07T08:37:01.607Z,2.87
2023-03-07T08:39:28.384Z,2.30
2023-03-07T08:41:56.913Z,2.47
2023-03-07T08:44:23.733Z,2.30
2023-03-07T08:46:50.496Z,2.13
2023-03-07T08:49:17.379Z,2.37
2023-03-07T08:51:46.632Z,2.50
2023-03-07T08:54:13.587Z,2.90
2023-03-07T08:56:40.429Z,2.57
2023-03-07T08:59:07.237Z,2.60
2023-03-07T09:01:34.014Z,2.70
2023-03-07T09:04:00.794Z,2.77
2023-03-07T09:06:27.588Z,2.70
2023-03-07T09:08:54.376Z,2.53
2023-03-07T09:11:22.136Z,2.83
2023-03-07T09:13:52.658Z,2.73
2023-03-07T09:16:22.392Z,2.77
2023-03-07T09:18:52.227Z,3.00
2023-03-07T09:21:19.627Z,2.50
2023-03-07T09:23:46.372Z,3.10
2023-03-07T09:26:13.487Z,3.93
2023-03-07T09:28:40.536Z,3.97
2023-03-07T09:31:09.138Z,3.30
2023-03-07T09:33:35.894Z,3.30
2023-03-07T09:36:07.539Z,2.37
2023-03-07T09:38:35.151Z,2.50
2023-03-07T09:41:16.833Z,2.60
2023-03-07T09:44:10.828Z,2.93
2023-03-07T09:47:25.950Z,2.70
2023-03-07T09:49:54.002Z,2.50
2023-03-07T09:52:25.741Z,2.33
2023-03-07T09:55:00.542Z,2.50
2023-03-07T09:57:40.586Z,2.37
2023-03-07T10:00:21.806Z,2.40
2023-03-07T10:02:54.875Z,2.87
2023-03-07T10:05:32.539Z,2.20
2023-03-07T10:08:03.332Z,2.93
2023-03-07T10:11:06.402Z,2.57
2023-03-07T10:14:05.478Z,2.80
2023-03-07T10:16:52.941Z,2.87
2023-03-07T10:19:44.625Z,2.40
2023-03-07T10:22:20.646Z,2.30
2023-03-07T10:25:14.683Z,1.90
2023-03-07T10:27:43.775Z,1.83
2023-03-07T10:30:20.977Z,1.60
2023-03-07T10:32:58.672Z,1.80
2023-03-07T10:35:44.375Z,1.90
2023-03-07T10:38:33.884Z,2.40
2023-03-07T10:41:06.997Z,2.30
2023-03-07T10:43:35.151Z,2.90
2023-03-07T10:46:26.859Z,2.80
2023-03-07T10:49:25.482Z,2.63
2023-03-07T10:52:14.226Z,2.73
2023-03-07T10:54:41.099Z,2.73
2023-03-07T10:57:12.812Z,2.43
2023-03-07T10:59:45.704Z,2.63
2023-03-07T11:02:36.850Z,2.27
2023-03-07T11:05:31.829Z,1.70
2023-03-07T11:08:19.059Z,1.83
2023-03-07T11:10:45.853Z,1.67
2023-03-07T11:13:21.133Z,1.97
2023-03-07T11:15:48.972Z,1.60
2023-03-07T11:18:45.682Z,1.87
2023-03-07T11:21:37.496Z,1.93
2023-03-07T11:24:16.961Z,2.10
2023-03-07T11:26:46.618Z,2.00
2023-03-07T11:29:14.805Z,2.30
2023-03-07T11:31:53.484Z,1.90
2023-03-07T11:34:32.246Z,2.03
2023-03-07T11:37:38.301Z,2.50
2023-03-07T11:40:28.576Z,2.50
2023-03-07T11:43:16.256Z,1.77
2023-03-07T11:46:10.223Z,2.10
2023-03-07T11:48:55.712Z,2.13
2023-03-07T11:51:49.840Z,2.67
2023-03-07T11:54:50.926Z,2.67
2023-03-07T11:57:24.827Z,2.53
2023-03-07T12:00:03.745Z,2.70
2023-03-07T12:03:22.530Z,3.30
2023-03-07T12:06:07.488Z,3.07
2023-03-07T12:08:46.195Z,3.20
2023-03-07T12:11:43.433Z,2.40
2023-03-07T12:14:21.951Z,2.87
2023-03-07T12:17:13.403Z,3.13
2023-03-07T12:19:49.033Z,3.40
2023-03-07T12:22:24.524Z,3.30
2023-03-07T12:25:22.359Z,4.63
2023-03-07T12:28:16.944Z,5.80
2023-03-07T12:31:08.583Z,5.73
2023-03-07T12:33:50.818Z,7.23
2023-03-07T12:36:36.089Z,7.37
2023-03-07T12:39:24.695Z,7.57
2023-03-07T12:42:03.251Z,8.33
2023-03-07T12:44:42.466Z,8.53
2023-03-07T12:47:18.027Z,9.03
2023-03-07T12:50:06.430Z,8.83
2023-03-07T12:52:44.970Z,9.53
2023-03-07T12:55:40.533Z,11.20
2023-03-07T12:58:28.218Z,10.53
2023-03-07T13:01:01.316Z,11.57
2023-03-07T13:03:50.993Z,11.60
2023-03-07T13:06:20.468Z,10.93
2023-03-07T13:08:50.428Z,10.73
2023-03-07T13:11:22.978Z,11.87
2023-03-07T13:13:56.093Z,11.80
2023-03-07T13:16:44.171Z,12.70
2023-03-07T13:19:35.880Z,9.33
2023-03-07T13:22:24.244Z,7.33
2023-03-07T13:24:54.667Z,5.77
2023-03-07T13:27:27.622Z,7.60
2023-03-07T13:30:12.763Z,7.17
2023-03-07T13:32:49.017Z,6.70
2023-03-07T13:35:30.417Z,6.80
2023-03-07T13:38:15.281Z,7.20
2023-03-07T13:40:45.151Z,5.23
2023-03-07T13:43:27.079Z,5.20
2023-03-07T13:46:28.082Z,5.90
2023-03-07T13:48:54.867Z,7.50
2023-03-07T13:51:23.355Z,6.90
2023-03-07T13:53:53.931Z,6.90
2023-03-07T13:56:26.314Z,5.80
2023-03-07T13:59:20.528Z,2.90
2023-03-07T14:02:00.311Z,1.80
2023-03-07T14:05:06.990Z,0.77
2023-03-07T14:07:36.863Z,0.60
2023-03-07T14:10:21.797Z,0.57
2023-03-07T14:13:16.634Z,0.37
2023-03-07T14:16:00.697Z,0.60
2023-03-07T14:18:46.351Z,0.30
2023-03-07T14:21:21.494Z,0.30
2023-03-07T14:24:25.525Z,0.50
2023-03-07T14:27:03.613Z,0.57
2023-03-07T14:29:31.006Z,0.90
2023-03-07T14:32:00.780Z,1.03
2023-03-07T14:34:32.033Z,0.77
2023-03-07T14:37:12.750Z,0.80
2023-03-07T14:40:00.909Z,0.67
2023-03-07T14:42:38.430Z,0.77
2023-03-07T14:45:23.420Z,0.80
2023-03-07T14:48:02.078Z,1.00
2023-03-07T14:50:30.610Z,0.97
2023-03-07T14:53:21.162Z,0.90
2023-03-07T14:55:51.208Z,0.80
2023-03-07T14:58:21.285Z,0.90
2023-03-07T15:01:01.815Z,1.07
2023-03-07T15:03:29.485Z,0.93
2023-03-07T15:06:01.902Z,0.87
2023-03-07T15:08:30.005Z,0.93
2023-03-07T15:11:25.327Z,1.00
2023-03-07T15:14:05.354Z,1.33
2023-03-07T15:16:41.165Z,1.00
2023-03-07T15:19:35.024Z,0.97
2023-03-07T15:22:04.024Z,1.00
2023-03-07T15:24:42.982Z,1.17
2023-03-07T15:27:15.245Z,1.40
2023-03-07T15:29:48.693Z,1.30
2023-03-07T15:32:45.052Z,1.50
2023-03-07T15:35:24.899Z,1.50
2023-03-07T15:38:00.222Z,1.63
2023-03-07T15:40:34.656Z,1.20
2023-03-07T15:43:04.949Z,1.40
2023-03-07T15:45:40.870Z,1.50
2023-03-07T15:48:52.877Z,1.40
2023-03-07T15:51:24.448Z,1.57
2023-03-07T15:54:20.689Z,1.60
2023-03-07T15:56:57.216Z,1.60
2023-03-07T15:59:34.638Z,1.70
2023-03-07T16:02:39.684Z,1.90
2023-03-07T16:05:22.898Z,1.20
2023-03-07T16:07:57.289Z,1.00
2023-03-07T16:10:29.446Z,0.90
2023-03-07T16:12:56.717Z,0.90
2023-03-07T16:15:26.400Z,0.97
2023-03-07T16:17:56.176Z,1.20
2023-03-07T16:20:28.033Z,0.70
2023-03-07T16:22:55.455Z,1.20
2023-03-07T16:25:24.876Z,1.13
2023-03-07T16:27:57.185Z,1.03
2023-03-07T16:30:27.605Z,1.00
2023-03-07T16:32:54.844Z,1.23
2023-03-07T16:35:24.426Z,1.10
2023-03-07T16:37:51.613Z,1.00
2023-03-07T16:40:20.160Z,1.03
2023-03-07T16:42:50.358Z,0.73
2023-03-07T16:45:26.625Z,0.70
2023-03-07T16:47:58.428Z,0.90
2023-03-07T16:50:29.120Z,1.13
2023-03-07T16:52:56.285Z,0.87
2023-03-07T16:55:23.718Z,0.67
2023-03-07T16:57:54.717Z,0.90
2023-03-07T17:00:24.313Z,0.70
2023-03-07T17:02:56.998Z,0.87
2023-03-07T17:05:26.265Z,0.80
2023-03-07T17:07:54.332Z,1.10
2023-03-07T17:10:22.169Z,0.80
2023-03-07T17:12:54.875Z,1.00
2023-03-07T17:15:26.203Z,1.33
2023-03-07T17:17:53.393Z,1.07
2023-03-07T17:20:20.651Z,1.07
2023-03-07T17:22:47.571Z,1.40
2023-03-07T17:25:17.266Z,1.40
2023-03-07T17:27:57.071Z,1.00
2023-03-07T17:30:26.637Z,1.27
2023-03-07T17:32:53.875Z,1.10
2023-03-07T17:35:22.277Z,1.40
2023-03-07T17:37:51.311Z,1.30
2023-03-07T17:40:18.513Z,1.40
2023-03-07T17:42:45.771Z,1.50
2023-03-07T17:45:15.269Z,1.40
2023-03-07T17:47:42.164Z,2.23
2023-03-07T17:50:10.252Z,1.63
2023-03-07T17:52:37.451Z,1.50
2023-03-07T17:55:09.352Z,1.97
2023-03-07T17:57:36.687Z,1.93
2023-03-07T18:00:06.977Z,1.43
2023-03-07T18:02:35.118Z,2.30
2023-03-07T18:05:01.878Z,2.00
2023-03-07T18:07:28.619Z,2.40
2023-03-07T18:10:07.227Z,2.57
2023-03-07T18:12:35.864Z,2.43
2023-03-07T18:15:02.592Z,3.00
2023-03-07T18:17:38.482Z,2.97
2023-03-07T18:20:16.379Z,3.17
2023-03-07T18:22:43.449Z,3.37
2023-03-07T18:25:13.537Z,3.20
2023-03-07T18:27:40.506Z,3.40
2023-03-07T18:30:07.802Z,3.63
2023-03-07T18:32:34.819Z,3.43
2023-03-07T18:35:01.849Z,3.50
2023-03-07T18:37:29.138Z,4.03
2023-03-07T18:39:56.188Z,3.90
2023-03-07T18:42:22.935Z,4.00
2023-03-07T18:44:49.804Z,4.57
2023-03-07T18:47:17.069Z,4.20
2023-03-07T18:49:44.120Z,2.13
2023-03-07T18:52:13.277Z,0.70
2023-03-07T18:54:40.010Z,0.30
2023-03-07T18:57:07.176Z,0.30
2023-03-07T18:59:33.908Z,0.20
2023-03-07T19:02:03.154Z,0.30
2023-03-07T19:04:31.435Z,0.30
2023-03-07T19:06:59.702Z,0.60
2023-03-07T19:09:31.289Z,0.63
2023-03-07T19:11:58.261Z,0.90
2023-03-07T19:14:28.893Z,0.77
2023-03-07T19:16:55.645Z,1.10
2023-03-07T19:19:24.984Z,1.00
2023-03-07T19:21:51.882Z,1.33
2023-03-07T19:24:18.645Z,1.70
2023-03-07T19:26:45.577Z,1.80
2023-03-07T19:29:13.125Z,2.30
2023-03-07T19:31:43.661Z,2.60
2023-03-07T19:34:13.552Z,3.13
2023-03-07T19:36:41.632Z,3.80
2023-03-07T19:39:09.547Z,3.20
2023-03-07T19:41:40.443Z,3.50
2023-03-07T19:44:12.024Z,3.83
2023-03-07T19:46:38.860Z,3.43
2023-03-07T19:49:05.636Z,4.20
2023-03-07T19:51:32.370Z,4.50
2023-03-07T19:53:59.064Z,4.03
2023-03-07T19:56:28.445Z,5.27
2023-03-07T19:58:56.247Z,4.87
2023-03-07T20:01:23.325Z,5.00
2023-03-07T20:03:51.041Z,5.80
2023-03-07T20:06:20.507Z,6.23
2023-03-07T20:08:48.848Z,5.87
2023-03-07T20:11:26.863Z,6.53
2023-03-07T20:13:55.960Z,6.73
2023-03-07T20:16:23.709Z,7.07
2023-03-07T20:18:52.022Z,7.90
2023-03-07T20:21:25.663Z,7.63
2023-03-07T20:23:54.676Z,6.87
2023-03-07T20:26:31.507Z,7.33
2023-03-07T20:29:02.483Z,7.20
2023-03-07T20:31:30.391Z,7.20
2023-03-07T20:33:59.155Z,7.00
2023-03-07T20:36:36.225Z,6.63
2023-03-07T20:39:08.480Z,6.97
2023-03-07T20:41:35.722Z,7.00
2023-03-07T20:44:07.941Z,6.90
2023-03-07T20:46:38.658Z,7.20
2023-03-07T20:49:05.971Z,7.53
2023-03-07T20:51:35.431Z,8.63
2023-03-07T20:54:14.644Z,8.63
2023-03-07T20:56:41.575Z,9.27
2023-03-07T20:59:11.552Z,8.50
2023-03-07T21:01:38.995Z,8.73
2023-03-07T21:04:12.183Z,9.23
2023-03-07T21:06:41.863Z,8.83
2023-03-07T21:09:11.088Z,8.83
2023-03-07T21:11:40.675Z,9.17
2023-03-07T21:14:08.377Z,8.47
2023-03-07T21:16:35.120Z,8.57
2023-03-07T21:19:04.441Z,8.23
2023-03-07T21:21:32.471Z,8.47
2023-03-07T21:23:59.793Z,8.27
2023-03-07T21:26:31.436Z,7.73
2023-03-07T21:28:59.070Z,6.93
2023-03-07T21:31:30.746Z,7.13
2023-03-07T21:34:03.076Z,7.37
2023-03-07T21:36:35.933Z,8.00
2023-03-07T21:39:05.556Z,7.00
2023-03-07T21:41:32.275Z,6.83
2023-03-07T21:44:01.869Z,8.03
2023-03-07T21:46:29.241Z,8.20
2023-03-07T21:48:59.560Z,7.10
2023-03-07T21:51:26.485Z,8.27
2023-03-07T21:53:53.322Z,7.40
2023-03-07T21:56:20.823Z,7.10
2023-03-07T21:58:50.117Z,7.77
2023-03-07T22:01:27.102Z,8.13
2023-03-07T22:03:58.043Z,7.47
2023-03-07T22:06:29.002Z,7.67
2023-03-07T22:08:55.835Z,6.97
2023-03-07T22:11:22.840Z,6.93
2023-03-07T22:13:50.100Z,6.10
2023-03-07T22:16:20.983Z,6.83
2023-03-07T22:18:57.407Z,6.90
2023-03-07T22:21:27.808Z,6.40
2023-03-07T22:24:00.827Z,6.57
2023-03-07T22:26:29.154Z,6.63
2023-03-07T22:28:56.242Z,6.47
2023-03-07T22:31:23.604Z,6.23
2023-03-07T22:33:50.509Z,6.73
2023-03-07T22:36:17.445Z,5.60
2023-03-07T22:38:44.394Z,6.63
2023-03-07T22:41:17.308Z,6.00
2023-03-07T22:43:44.223Z,6.87
2023-03-07T22:46:11.612Z,6.20
2023-03-07T22:48:38.586Z,6.90
2023-03-07T22:51:11.306Z,6.57
2023-03-07T22:53:38.187Z,6.50
2023-03-07T22:56:14.746Z,7.73
2023-03-07T22:58:41.526Z,7.40
2023-03-07T23:01:17.486Z,7.17
2023-03-07T23:03:44.286Z,6.57
2023-03-07T23:06:11.408Z,6.37
2023-03-07T23:08:38.283Z,6.67
2023-03-07T23:11:07.831Z,7.10
2023-03-07T23:13:35.210Z,6.10
2023-03-07T23:16:13.536Z,6.53
2023-03-07T23:18:41.740Z,6.97
2023-03-07T23:21:11.104Z,6.27
2023-03-07T23:23:38.382Z,6.60
2023-03-07T23:26:06.739Z,6.60
2023-03-07T23:28:33.708Z,6.27
2023-03-07T23:31:00.792Z,6.47
2023-03-07T23:33:27.573Z,6.67
2023-03-07T23:35:54.337Z,6.70
2023-03-07T23:38:21.109Z,6.23
2023-03-07T23:40:48.020Z,6.13
2023-03-07T23:43:16.791Z,6.33
2023-03-07T23:45:43.541Z,6.80
2023-03-07T23:48:10.859Z,6.30
2023-03-07T23:50:37.735Z,6.53
2023-03-07T23:53:04.713Z,5.87
2023-03-07T23:55:31.497Z,5.83
2023-03-07T23:57:58.296Z,6.50
